createdAt,value
2023-04-11T00:00:40.974Z,2
2023-04-11T00:01:41.059Z,2
2023-04-11T00:02:41.130Z,2.28
2023-04-11T00:03:41.198Z,2.28
2023-04-11T00:05:41.014Z,2.33
2023-04-11T00:07:40.995Z,2.11
2023-04-11T00:09:40.993Z,2.61
2023-04-11T00:10:40.986Z,2.78
2023-04-11T00:11:40.978Z,2.33
2023-04-11T00:12:40.974Z,2.44
2023-04-11T00:14:40.979Z,2.06
2023-04-11T00:15:40.951Z,2.11
2023-04-11T00:16:40.971Z,2
2023-04-11T00:17:41.039Z,1.89
2023-04-11T00:18:40.964Z,2
2023-04-11T00:20:40.955Z,2
2023-04-11T00:21:41.011Z,1.83
2023-04-11T00:23:40.973Z,1.83
2023-04-11T00:25:40.986Z,2.11
2023-04-11T00:26:40.963Z,1.83
2023-04-11T00:27:40.984Z,2
2023-04-11T00:29:40.977Z,1.94
2023-04-11T00:30:40.958Z,1.61
2023-04-11T00:31:40.992Z,1.61
2023-04-11T00:32:41.057Z,2
2023-04-11T00:34:40.973Z,2
2023-04-11T00:35:41.111Z,2.44
2023-04-11T00:37:40.986Z,2.61
2023-04-11T00:39:40.993Z,2.22
2023-04-11T00:40:40.973Z,2.17
2023-04-11T00:42:40.966Z,1.61
2023-04-11T00:43:40.958Z,1.5
2023-04-11T00:44:40.957Z,1.67
2023-04-11T00:45:41.110Z,1.33
2023-04-11T00:46:40.961Z,1.56
2023-04-11T00:47:40.976Z,0.83
2023-04-11T00:48:40.966Z,1.33
2023-04-11T00:49:40.956Z,1.39
2023-04-11T00:50:40.967Z,1.33
2023-04-11T00:51:40.982Z,1.72
2023-04-11T00:52:40.962Z,1.72
2023-04-11T00:53:41.010Z,1.89
2023-04-11T00:55:40.968Z,1.89
2023-04-11T00:56:40.975Z,1.61
2023-04-11T00:57:40.959Z,1.72
2023-04-11T00:58:40.962Z,1.5
2023-04-11T00:59:40.975Z,1.72
2023-04-11T01:00:40.965Z,1.72
2023-04-11T01:01:41.024Z,1.61
2023-04-11T01:03:41.189Z,1.89
2023-04-11T01:05:40.970Z,2.28
2023-04-11T01:07:40.981Z,2
2023-04-11T01:08:40.969Z,1.89
2023-04-11T01:09:41.017Z,2
2023-04-11T01:11:40.981Z,1.89
2023-04-11T01:13:40.983Z,1.72
2023-04-11T01:14:40.983Z,1.61
2023-04-11T01:16:41.020Z,1.56
2023-04-11T01:17:40.990Z,1.17
2023-04-11T01:18:40.995Z,1.33
2023-04-11T01:19:40.992Z,1.33
2023-04-11T01:21:40.981Z,1.33
2023-04-11T01:22:40.993Z,1.17
2023-04-11T01:23:40.997Z,1.56
2023-04-11T01:24:40.989Z,1.5
2023-04-11T01:25:41.043Z,1.33
2023-04-11T01:27:40.982Z,1.33
2023-04-11T01:28:40.997Z,1.33
2023-04-11T01:30:41.058Z,1.33
2023-04-11T01:31:41.003Z,1.06
2023-04-11T01:32:40.994Z,1.33
2023-04-11T01:33:40.990Z,1.72
2023-04-11T01:34:41.002Z,1.89
2023-04-11T01:35:40.997Z,1.72
2023-04-11T01:37:40.996Z,1.61
2023-04-11T01:38:40.978Z,1.5
2023-04-11T01:39:40.988Z,1.72
2023-04-11T01:41:41.020Z,2.17
2023-04-11T01:42:40.985Z,1.89
2023-04-11T01:43:40.993Z,1.72
2023-04-11T01:45:41.013Z,1.72
2023-04-11T01:46:41.003Z,1.61
2023-04-11T01:47:41.053Z,2
2023-04-11T01:48:41.197Z,1.89
2023-04-11T01:49:41.009Z,2
2023-04-11T01:51:41.000Z,1.61
2023-04-11T01:52:40.984Z,1.89
2023-04-11T01:54:41.005Z,1.72
2023-04-11T01:55:40.996Z,1.89
2023-04-11T01:56:40.994Z,1.89
2023-04-11T01:57:41.016Z,2.17
2023-04-11T01:58:40.986Z,2
2023-04-11T01:59:40.997Z,2.17
2023-04-11T02:01:41.072Z,2.28
2023-04-11T02:02:41.087Z,2
2023-04-11T02:04:41.017Z,2.17
2023-04-11T02:05:41.004Z,2
2023-04-11T02:07:40.990Z,1.61
2023-04-11T02:08:41.007Z,1.33
2023-04-11T02:09:40.992Z,0.44
2023-04-11T02:10:41.010Z,1.17
2023-04-11T02:12:41.006Z,1.06
2023-04-11T02:13:41.033Z,1.17
2023-04-11T02:15:41.007Z,1.33
2023-04-11T02:16:40.991Z,1.33
2023-04-11T02:17:41.048Z,1.33
2023-04-11T02:18:41.007Z,1.17
2023-04-11T02:19:40.997Z,1.61
2023-04-11T02:20:41.003Z,1.72
2023-04-11T02:21:40.996Z,1.61
2023-04-11T02:22:40.992Z,1.72
2023-04-11T02:23:41.005Z,1.72
2023-04-11T02:24:40.996Z,1.61
2023-04-11T02:25:41.018Z,1.72
2023-04-11T02:27:41.001Z,1.72
2023-04-11T02:28:41.003Z,1.5
2023-04-11T02:29:41.034Z,1.61
2023-04-11T02:31:41.174Z,1.72
2023-04-11T02:32:41.070Z,1.61
2023-04-11T02:33:40.993Z,1.61
2023-04-11T02:34:41.002Z,2
2023-04-11T02:35:41.028Z,2
2023-04-11T02:36:40.992Z,1.72
2023-04-11T02:37:41.000Z,1.72
2023-04-11T02:38:40.998Z,1.72
2023-04-11T02:39:40.992Z,1.72
2023-04-11T02:40:41.010Z,1.72
2023-04-11T02:42:40.999Z,1.17
2023-04-11T02:43:40.991Z,1.17
2023-04-11T02:44:41.008Z,1.33
2023-04-11T02:45:41.021Z,1.33
2023-04-11T02:46:41.052Z,1.5
2023-04-11T02:47:41.002Z,1.72
2023-04-11T02:49:41.001Z,1.61
2023-04-11T02:50:41.202Z,1.61
2023-04-11T02:52:40.996Z,1.61
2023-04-11T02:53:41.029Z,1.72
2023-04-11T02:54:40.998Z,1.72
2023-04-11T02:55:41.001Z,2
2023-04-11T02:57:41.015Z,1.89
2023-04-11T02:58:41.016Z,1.72
2023-04-11T02:59:41.020Z,1.61
2023-04-11T03:00:40.998Z,1.5
2023-04-11T03:01:41.236Z,1.72
2023-04-11T03:03:41.053Z,1.89
2023-04-11T03:04:41.020Z,1.72
2023-04-11T03:05:41.005Z,1.72
2023-04-11T03:06:41.020Z,1.61
2023-04-11T03:07:41.006Z,1.61
2023-04-11T03:08:41.011Z,1.89
2023-04-11T03:09:41.002Z,1.61
2023-04-11T03:10:41.009Z,1.72
2023-04-11T03:11:41.014Z,1.61
2023-04-11T03:12:40.999Z,1.61
2023-04-11T03:13:41.018Z,1.61
2023-04-11T03:14:41.015Z,1.5
2023-04-11T03:15:41.005Z,1.72
2023-04-11T03:16:41.032Z,1.61
2023-04-11T03:17:41.060Z,1.72
2023-04-11T03:19:41.020Z,1.61
2023-04-11T03:20:41.018Z,1.33
2023-04-11T03:21:41.009Z,1.72
2023-04-11T03:22:41.021Z,1.5
2023-04-11T03:23:41.025Z,1.72
2023-04-11T03:25:41.013Z,1.72
2023-04-11T03:26:41.021Z,1.72
2023-04-11T03:28:41.056Z,1.72
2023-04-11T03:29:41.024Z,1.72
2023-04-11T03:30:41.036Z,1.89
2023-04-11T03:31:41.049Z,1.61
2023-04-11T03:33:41.047Z,1.61
2023-04-11T03:35:41.053Z,1.61
2023-04-11T03:36:41.022Z,1.5
2023-04-11T03:37:41.025Z,1.61
2023-04-11T03:38:41.022Z,1.72
2023-04-11T03:39:41.017Z,1.5
2023-04-11T03:40:41.034Z,1.72
2023-04-11T03:41:41.021Z,1.89
2023-04-11T03:42:41.029Z,1.72
2023-04-11T03:44:41.046Z,2.17
2023-04-11T03:45:41.046Z,1.89
2023-04-11T03:46:41.072Z,2
2023-04-11T03:47:41.098Z,1.61
2023-04-11T03:49:41.090Z,1.5
2023-04-11T03:51:41.057Z,1.5
2023-04-11T03:52:41.023Z,1.89
2023-04-11T03:53:41.018Z,1.89
2023-04-11T03:54:41.033Z,1.89
2023-04-11T03:55:41.026Z,1.89
2023-04-11T03:56:41.020Z,1.33
2023-04-11T03:57:41.057Z,0.89
2023-04-11T03:58:41.048Z,1.17
2023-04-11T03:59:41.026Z,1.33
2023-04-11T04:00:41.025Z,1.06
2023-04-11T04:01:41.105Z,1.28
2023-04-11T04:02:41.135Z,1.33
2023-04-11T04:03:41.273Z,1.33
2023-04-11T04:04:41.112Z,1.33
2023-04-11T04:05:41.057Z,1.5
2023-04-11T04:07:41.062Z,1.17
2023-04-11T04:08:41.039Z,1.5
2023-04-11T04:10:41.028Z,1.61
2023-04-11T04:12:41.047Z,1.33
2023-04-11T04:13:41.035Z,1.61
2023-04-11T04:14:41.032Z,1.89
2023-04-11T04:15:41.052Z,1.83
2023-04-11T04:16:41.080Z,1.61
2023-04-11T04:17:41.061Z,1.61
2023-04-11T04:18:41.033Z,1.61
2023-04-11T04:20:41.073Z,1.33
2023-04-11T04:21:41.061Z,1.5
2023-04-11T04:22:41.076Z,1.5
2023-04-11T04:23:41.050Z,1.61
2023-04-11T04:24:41.050Z,1.72
2023-04-11T04:26:41.038Z,1.72
2023-04-11T04:27:41.032Z,1.89
2023-04-11T04:28:41.045Z,1.61
2023-04-11T04:29:41.043Z,1.72
2023-04-11T04:31:41.091Z,1.72
2023-04-11T04:32:41.196Z,1.61
2023-04-11T04:33:41.041Z,1.61
2023-04-11T04:34:41.062Z,1.72
2023-04-11T04:36:41.048Z,1.61
2023-04-11T04:37:41.128Z,2
2023-04-11T04:39:41.059Z,1.5
2023-04-11T04:40:41.052Z,1.5
2023-04-11T04:41:41.050Z,1.5
2023-04-11T04:42:41.078Z,1.72
2023-04-11T04:43:41.051Z,1.61
2023-04-11T04:44:41.053Z,1.72
2023-04-11T04:45:41.063Z,1.72
2023-04-11T04:46:41.075Z,2
2023-04-11T04:47:41.065Z,1.89
2023-04-11T04:48:41.049Z,2.28
2023-04-11T04:49:41.064Z,2.17
2023-04-11T04:51:41.072Z,2.17
2023-04-11T04:52:41.070Z,2.17
2023-04-11T04:53:41.096Z,1.89
2023-04-11T04:55:41.068Z,1.33
2023-04-11T04:57:41.044Z,1.72
2023-04-11T04:58:41.060Z,1.33
2023-04-11T04:59:41.057Z,1.72
2023-04-11T05:00:41.073Z,1.72
2023-04-11T05:01:41.154Z,1.61
2023-04-11T05:02:41.148Z,1.72
2023-04-11T05:04:41.057Z,1.72
2023-04-11T05:05:41.058Z,1.72
2023-04-11T05:06:41.066Z,1.89
2023-04-11T05:08:41.077Z,2.17
2023-04-11T05:09:41.082Z,2.17
2023-04-11T05:11:41.076Z,2.28
2023-04-11T05:12:41.074Z,2.44
2023-04-11T05:13:41.080Z,2.44
2023-04-11T05:14:41.087Z,2.44
2023-04-11T05:16:41.093Z,1.72
2023-04-11T05:17:41.127Z,1.72
2023-04-11T05:18:41.064Z,2.17
2023-04-11T05:19:41.089Z,2
2023-04-11T05:21:41.069Z,2.28
2023-04-11T05:23:41.074Z,2.28
2023-04-11T05:25:41.102Z,2.61
2023-04-11T05:26:41.073Z,2.61
2023-04-11T05:27:41.077Z,2.28
2023-04-11T05:28:41.063Z,2.61
2023-04-11T05:29:41.066Z,2.61
2023-04-11T05:30:41.080Z,2.44
2023-04-11T05:31:41.078Z,2.61
2023-04-11T05:32:41.076Z,2.72
2023-04-11T05:33:41.087Z,2.89
2023-04-11T05:34:41.084Z,2.61
2023-04-11T05:35:41.111Z,2.61
2023-04-11T05:36:41.077Z,2.72
2023-04-11T05:38:41.068Z,2.89
2023-04-11T05:40:41.078Z,2.72
2023-04-11T05:41:41.090Z,2.28
2023-04-11T05:43:41.075Z,2.72
2023-04-11T05:45:41.129Z,2.28
2023-04-11T05:47:41.079Z,2.72
2023-04-11T05:48:41.078Z,2.44
2023-04-11T05:49:41.069Z,3
2023-04-11T05:50:41.085Z,3
2023-04-11T05:51:41.083Z,2.72
2023-04-11T05:52:41.070Z,2.89
2023-04-11T05:53:41.080Z,3
2023-04-11T05:54:41.082Z,3
2023-04-11T05:55:41.085Z,2.89
2023-04-11T05:57:41.115Z,3.33
2023-04-11T05:59:41.082Z,3.33
2023-04-11T06:00:41.083Z,3.33
2023-04-11T06:01:41.099Z,3.44
2023-04-11T06:02:41.247Z,3.44
2023-04-11T06:04:41.298Z,3.17
2023-04-11T06:06:41.101Z,3.44
2023-04-11T06:08:41.091Z,3.33
2023-04-11T06:09:41.076Z,3.44
2023-04-11T06:10:41.091Z,3.33
2023-04-11T06:11:41.106Z,3
2023-04-11T06:13:41.103Z,3.44
2023-04-11T06:15:41.114Z,3.17
2023-04-11T06:16:41.091Z,3.72
2023-04-11T06:17:41.077Z,3.72
2023-04-11T06:18:41.097Z,3.83
2023-04-11T06:19:41.109Z,3.56
2023-04-11T06:20:41.094Z,3.83
2023-04-11T06:22:41.084Z,3.83
2023-04-11T06:24:41.095Z,4.28
2023-04-11T06:25:41.084Z,4
2023-04-11T06:26:41.083Z,4.17
2023-04-11T06:27:41.081Z,4.28
2023-04-11T06:28:41.111Z,4.28
2023-04-11T06:29:41.113Z,3.83
2023-04-11T06:31:41.137Z,4.17
2023-04-11T06:32:41.137Z,4.28
2023-04-11T06:34:41.094Z,4.28
2023-04-11T06:35:41.122Z,4.17
2023-04-11T06:37:41.093Z,3.83
2023-04-11T06:38:41.098Z,4
2023-04-11T06:39:41.090Z,3.56
2023-04-11T06:41:41.111Z,3.56
2023-04-11T06:42:41.110Z,3.72
2023-04-11T06:43:41.111Z,3.83
2023-04-11T06:45:41.136Z,3.44
2023-04-11T06:47:41.143Z,3.33
2023-04-11T06:48:41.112Z,3.17
2023-04-11T06:49:41.097Z,4
2023-04-11T06:50:41.103Z,3.83
2023-04-11T06:51:41.104Z,4.28
2023-04-11T06:52:41.108Z,4.28
2023-04-11T06:54:41.114Z,4.28
2023-04-11T06:55:41.103Z,4
2023-04-11T06:56:41.112Z,4.28
2023-04-11T06:59:45.360Z,4.28
2023-04-11T07:00:45.516Z,4.44
2023-04-11T07:02:45.579Z,4.72
2023-04-11T07:03:45.497Z,4.72
2023-04-11T07:05:45.388Z,4.56
2023-04-11T07:06:45.377Z,4.28
2023-04-11T07:07:45.389Z,3.83
2023-04-11T07:08:45.366Z,4.44
2023-04-11T07:09:45.374Z,3.83
2023-04-11T07:10:45.391Z,4.28
2023-04-11T07:11:45.375Z,4.17
2023-04-11T07:12:45.393Z,4.28
2023-04-11T07:14:45.378Z,4.56
2023-04-11T07:15:45.391Z,4.72
2023-04-11T07:16:45.522Z,4.89
2023-04-11T07:18:45.386Z,5
2023-04-11T07:19:45.376Z,5.17
2023-04-11T07:20:45.397Z,4.89
2023-04-11T07:21:45.408Z,5
2023-04-11T07:22:45.396Z,5.17
2023-04-11T07:23:45.385Z,5
2023-04-11T07:24:45.417Z,4.89
2023-04-11T07:26:45.401Z,5
2023-04-11T07:27:45.407Z,5
2023-04-11T07:28:45.401Z,5
2023-04-11T07:29:45.394Z,5.17
2023-04-11T07:30:45.406Z,5.33
2023-04-11T07:31:45.484Z,5.33
2023-04-11T07:32:45.468Z,5.17
2023-04-11T07:34:45.418Z,5.17
2023-04-11T07:36:45.404Z,4.56
2023-04-11T07:37:45.446Z,5
2023-04-11T07:38:45.397Z,4.78
2023-04-11T07:39:45.407Z,5
2023-04-11T07:40:45.423Z,5.33
2023-04-11T07:41:45.439Z,5.17
2023-04-11T07:42:45.410Z,5.33
2023-04-11T07:43:45.406Z,5.17
2023-04-11T07:44:45.400Z,5.17
2023-04-11T07:45:45.441Z,5.17
2023-04-11T07:47:45.437Z,5.17
2023-04-11T07:48:45.521Z,4.72
2023-04-11T07:49:45.424Z,5
2023-04-11T07:50:45.418Z,5
2023-04-11T07:52:45.436Z,5.5
2023-04-11T07:53:45.416Z,5.39
2023-04-11T07:55:45.418Z,5.33
2023-04-11T07:57:45.414Z,6.06
2023-04-11T07:58:45.424Z,6.39
2023-04-11T08:00:45.415Z,6.56
2023-04-11T08:01:45.502Z,6.11
2023-04-11T08:02:45.512Z,6.11
2023-04-11T08:03:45.526Z,5.89
2023-04-11T08:04:45.531Z,6
2023-04-11T08:06:45.414Z,6.5
2023-04-11T08:07:45.413Z,6.83
2023-04-11T08:08:45.430Z,7
2023-04-11T08:09:45.421Z,7.17
2023-04-11T08:10:45.428Z,7
2023-04-11T08:12:45.432Z,6.39
2023-04-11T08:13:45.421Z,6.72
2023-04-11T08:14:45.438Z,6.39
2023-04-11T08:15:45.446Z,6.39
2023-04-11T08:17:45.440Z,6.78
2023-04-11T08:18:45.426Z,6.67
2023-04-11T08:19:45.441Z,6.78
2023-04-11T08:20:45.482Z,6.67
2023-04-11T08:21:45.427Z,6.67
2023-04-11T08:22:45.448Z,6.78
2023-04-11T08:23:45.926Z,6.39
2023-04-11T08:25:45.436Z,7.5
2023-04-11T08:26:45.439Z,7.5
2023-04-11T08:28:45.457Z,7.78
2023-04-11T08:30:45.450Z,8
2023-04-11T08:31:45.466Z,7.94
2023-04-11T08:32:45.514Z,7.94
2023-04-11T08:34:45.467Z,7.94
2023-04-11T08:36:45.484Z,7.94
2023-04-11T08:38:45.459Z,7.22
2023-04-11T08:39:45.449Z,6.78
2023-04-11T08:40:45.478Z,7.11
2023-04-11T08:41:45.473Z,7.22
2023-04-11T08:42:45.458Z,6.78
2023-04-11T08:43:45.455Z,7.5
2023-04-11T08:44:45.458Z,7.78
2023-04-11T08:45:45.483Z,7.78
2023-04-11T08:47:46.000Z,8.28
2023-04-11T08:49:45.462Z,8.5
2023-04-11T08:50:45.461Z,8.28
2023-04-11T08:51:45.487Z,7.67
2023-04-11T08:52:45.484Z,8.28
2023-04-11T08:53:45.457Z,8.39
2023-04-11T08:54:45.464Z,7.94
2023-04-11T08:55:45.471Z,7.67
2023-04-11T08:56:45.472Z,7.94
2023-04-11T08:57:45.476Z,7.94
2023-04-11T08:58:45.471Z,7.39
2023-04-11T08:59:45.499Z,8.11
2023-04-11T09:01:45.542Z,8.28
2023-04-11T09:03:45.495Z,7.94
2023-04-11T09:04:45.510Z,8.11
2023-04-11T09:06:45.475Z,8.78
2023-04-11T09:07:45.472Z,8.5
2023-04-11T09:08:45.499Z,8.94
2023-04-11T09:10:45.597Z,8.78
2023-04-11T09:11:45.495Z,8.78
2023-04-11T09:13:45.478Z,9.22
2023-04-11T09:14:45.483Z,9.22
2023-04-11T09:15:45.492Z,9.22
2023-04-11T09:16:45.689Z,9.22
2023-04-11T09:17:45.535Z,9.78
2023-04-11T09:18:45.470Z,9.78
2023-04-11T09:19:47.647Z,9.5
2023-04-11T09:20:45.486Z,10.11
2023-04-11T09:21:45.489Z,9.94
2023-04-11T09:22:45.504Z,9.06
2023-04-11T09:24:45.539Z,8.94
2023-04-11T09:26:45.493Z,8.78
2023-04-11T09:27:45.503Z,9.06
2023-04-11T09:28:45.541Z,9.39
2023-04-11T09:29:45.507Z,9.67
2023-04-11T09:31:45.558Z,9.5
2023-04-11T09:32:45.533Z,9.5
2023-04-11T09:34:45.514Z,9.67
2023-04-11T09:35:45.526Z,10.11
2023-04-11T09:36:45.513Z,9.67
2023-04-11T09:37:45.512Z,9.94
2023-04-11T09:38:45.513Z,9.78
2023-04-11T09:40:45.535Z,9.39
2023-04-11T09:42:45.510Z,9.78
2023-04-11T09:43:45.516Z,10.22
2023-04-11T09:44:45.522Z,9.5
2023-04-11T09:46:45.546Z,10.11
2023-04-11T09:47:45.524Z,10.11
2023-04-11T09:48:47.076Z,10.22
2023-04-11T09:50:45.534Z,10.83
2023-04-11T09:51:45.526Z,10.67
2023-04-11T09:52:45.514Z,10.83
2023-04-11T09:53:45.525Z,9.94
2023-04-11T09:55:45.513Z,10.22
2023-04-11T09:56:45.548Z,10.56
2023-04-11T09:57:45.517Z,10.11
2023-04-11T09:58:45.537Z,10.11
2023-04-11T09:59:45.537Z,9.78
2023-04-11T10:01:45.555Z,10.56
2023-04-11T10:02:45.722Z,9.67
2023-04-11T10:03:45.547Z,9.67
2023-04-11T10:04:45.575Z,10.11
2023-04-11T10:05:45.557Z,10.56
2023-04-11T10:07:45.547Z,11.11
2023-04-11T10:08:45.534Z,11.44
2023-04-11T10:09:45.532Z,10.11
2023-04-11T10:10:45.550Z,9.67
2023-04-11T10:11:45.563Z,9.67
2023-04-11T10:12:45.561Z,10.22
2023-04-11T10:13:45.545Z,10.39
2023-04-11T10:14:45.549Z,11
2023-04-11T10:16:45.552Z,11.28
2023-04-11T10:17:45.557Z,11.11
2023-04-11T10:18:45.544Z,11
2023-04-11T10:19:45.532Z,10.56
2023-04-11T10:20:45.548Z,10.39
2023-04-11T10:21:45.562Z,10.39
2023-04-11T10:23:45.537Z,10.39
2023-04-11T10:24:45.548Z,10.39
2023-04-11T10:25:45.545Z,10.22
2023-04-11T10:26:45.533Z,10.22
2023-04-11T10:27:45.546Z,10.11
2023-04-11T10:28:45.593Z,10.56
2023-04-11T10:30:45.560Z,11.28
2023-04-11T10:31:45.582Z,11.11
2023-04-11T10:32:45.553Z,11.44
2023-04-11T10:33:45.552Z,11.44
2023-04-11T10:34:45.561Z,11.61
2023-04-11T10:35:45.555Z,11.28
2023-04-11T10:36:45.555Z,10.67
2023-04-11T10:38:45.550Z,10.67
2023-04-11T10:40:45.560Z,11.11
2023-04-11T10:41:45.559Z,11.11
2023-04-11T10:43:45.565Z,11
2023-04-11T10:44:45.584Z,11.28
2023-04-11T10:46:45.597Z,11.44
2023-04-11T10:48:45.560Z,11.11
2023-04-11T10:49:47.277Z,10.83
2023-04-11T10:50:45.555Z,11.44
2023-04-11T10:51:45.565Z,11.44
2023-04-11T10:52:45.585Z,11.44
2023-04-11T10:54:45.569Z,11.44
2023-04-11T10:55:45.581Z,11.11
2023-04-11T10:56:45.576Z,11
2023-04-11T10:57:45.574Z,11
2023-04-11T10:58:45.568Z,11.11
2023-04-11T10:59:45.555Z,11.11
2023-04-11T11:00:45.626Z,11
2023-04-11T11:01:52.261Z,10.44
2023-04-11T11:02:45.875Z,10.89
2023-04-11T11:03:45.795Z,11.06
2023-04-11T11:04:45.638Z,10.72
2023-04-11T11:06:47.626Z,10.72
2023-04-11T11:07:45.568Z,10.61
2023-04-11T11:08:45.565Z,10.72
2023-04-11T11:09:45.564Z,10.72
2023-04-11T11:10:45.574Z,10.33
2023-04-11T11:11:45.563Z,10.44
2023-04-11T11:13:45.577Z,10.89
2023-04-11T11:14:45.567Z,10.44
2023-04-11T11:15:45.579Z,10.44
2023-04-11T11:16:45.598Z,10.33
2023-04-11T11:17:45.635Z,10.17
2023-04-11T11:18:45.565Z,10
2023-04-11T11:19:45.582Z,10
2023-04-11T11:21:45.567Z,10
2023-04-11T11:22:45.585Z,9.89
2023-04-11T11:23:45.564Z,9.89
2023-04-11T11:24:45.566Z,9.89
2023-04-11T11:25:45.567Z,9.72
2023-04-11T11:26:45.553Z,9.72
2023-04-11T11:27:45.579Z,9.89
2023-04-11T11:28:45.599Z,9.28
2023-04-11T11:30:45.568Z,9.56
2023-04-11T11:31:45.683Z,9.17
2023-04-11T11:32:45.610Z,9.28
2023-04-11T11:33:45.568Z,9.44
2023-04-11T11:34:45.566Z,9.28
2023-04-11T11:36:45.607Z,9
2023-04-11T11:38:45.585Z,9.17
2023-04-11T11:40:45.568Z,9
2023-04-11T11:42:45.575Z,8.61
2023-04-11T11:43:45.578Z,8.44
2023-04-11T11:45:45.706Z,8.44
2023-04-11T11:46:45.724Z,8.17
2023-04-11T11:47:45.701Z,8.17
2023-04-11T11:48:45.599Z,8
2023-04-11T11:50:45.573Z,7.61
2023-04-11T11:52:45.597Z,7.44
2023-04-11T11:54:45.613Z,7.44
2023-04-11T11:56:45.593Z,7.33
2023-04-11T11:58:45.615Z,7.33
2023-04-11T11:59:45.587Z,7.61
2023-04-11T12:00:45.594Z,7.72
2023-04-11T12:01:45.607Z,7.72
2023-04-11T12:02:45.814Z,7.89
2023-04-11T12:04:45.826Z,8
2023-04-11T12:06:45.599Z,7.72
2023-04-11T12:07:45.603Z,8.17
2023-04-11T12:09:45.593Z,8.17
2023-04-11T12:10:45.600Z,8.17
2023-04-11T12:12:53.043Z,8
2023-04-11T12:13:45.623Z,7.89
2023-04-11T12:14:45.609Z,7.67
2023-04-11T12:16:45.604Z,7.5
2023-04-11T12:18:45.609Z,7.94
2023-04-11T12:20:45.649Z,7.67
2023-04-11T12:22:45.599Z,6.94
2023-04-11T12:24:45.601Z,7.67
2023-04-11T12:25:45.601Z,7.67
2023-04-11T12:27:02.763Z,7.67
2023-04-11T12:27:47.068Z,7.22
2023-04-11T12:28:45.606Z,7.5
2023-04-11T12:29:45.613Z,7.5
2023-04-11T12:31:46.078Z,7.5
2023-04-11T12:32:45.649Z,7.39
2023-04-11T12:34:45.612Z,7.5
2023-04-11T12:35:45.610Z,7.5
2023-04-11T12:36:45.658Z,7.11
2023-04-11T12:38:45.638Z,7.22
2023-04-11T12:40:45.615Z,7.22
2023-04-11T12:41:45.629Z,7.5
2023-04-11T12:42:53.445Z,7.39
2023-04-11T12:43:45.634Z,7.5
2023-04-11T12:45:45.625Z,7.39
2023-04-11T12:46:45.673Z,6.94
2023-04-11T12:47:45.644Z,7.39
2023-04-11T12:48:45.630Z,7.39
2023-04-11T12:49:45.620Z,7.11
2023-04-11T12:50:45.626Z,7.39
2023-04-11T12:51:45.629Z,7.11
2023-04-11T12:52:45.649Z,6.94
2023-04-11T12:53:45.636Z,7.22
2023-04-11T12:54:45.645Z,6.94
2023-04-11T12:56:45.632Z,6.94
2023-04-11T12:57:45.629Z,7.11
2023-04-11T12:58:45.624Z,7.11
2023-04-11T12:59:45.643Z,7.11
2023-04-11T13:00:45.674Z,7.11
2023-04-11T13:01:45.654Z,7.11
2023-04-11T13:02:45.880Z,6.94
2023-04-11T13:03:45.723Z,6.94
2023-04-11T13:04:45.776Z,6.94
2023-04-11T13:05:45.639Z,6.94
2023-04-11T13:06:45.641Z,7.11
2023-04-11T13:08:45.687Z,7.22
2023-04-11T13:10:45.642Z,6.94
2023-04-11T13:11:45.658Z,6.78
2023-04-11T13:13:45.660Z,6.67
2023-04-11T13:14:45.634Z,6.67
2023-04-11T13:15:45.650Z,6.5
2023-04-11T13:16:45.733Z,6.5
2023-04-11T13:18:45.645Z,6.67
2023-04-11T13:19:45.648Z,6.39
2023-04-11T13:20:45.653Z,6.39
2023-04-11T13:21:45.636Z,6.22
2023-04-11T13:22:45.649Z,6.39
2023-04-11T13:23:45.661Z,6.39
2023-04-11T13:24:45.695Z,6.22
2023-04-11T13:25:45.643Z,6.22
2023-04-11T13:26:45.694Z,6.22
2023-04-11T13:27:45.655Z,6.39
2023-04-11T13:28:45.664Z,6.5
2023-04-11T13:29:45.662Z,6.22
2023-04-11T13:31:45.720Z,6.22
2023-04-11T13:32:45.703Z,6.06
2023-04-11T13:33:45.667Z,5.94
2023-04-11T13:34:45.674Z,5.94
2023-04-11T13:36:45.712Z,5.94
2023-04-11T13:38:45.684Z,5.78
2023-04-11T13:39:45.695Z,5.67
2023-04-11T13:40:45.697Z,5.56
2023-04-11T13:41:45.674Z,5.94
2023-04-11T13:42:45.677Z,5.94
2023-04-11T13:43:45.672Z,5.67
2023-04-11T13:44:45.672Z,6.22
2023-04-11T13:45:45.697Z,6.06
2023-04-11T13:47:45.678Z,6.06
2023-04-11T13:48:45.673Z,5.94
2023-04-11T13:50:45.707Z,5.78
2023-04-11T13:51:45.678Z,5.78
2023-04-11T13:52:45.672Z,6.06
2023-04-11T13:53:45.686Z,5.94
2023-04-11T13:54:45.668Z,5.94
2023-04-11T13:55:45.675Z,6.22
2023-04-11T13:56:45.701Z,5.56
2023-04-11T13:58:45.682Z,6.22
2023-04-11T13:59:45.673Z,5.78
2023-04-11T14:00:45.719Z,6.06
2023-04-11T14:02:45.800Z,6.22
2023-04-11T14:04:45.690Z,6.06
2023-04-11T14:05:45.686Z,6.22
2023-04-11T14:07:45.708Z,6.22
2023-04-11T14:09:45.685Z,5.94
2023-04-11T14:10:45.696Z,5.94
2023-04-11T14:11:45.685Z,5.78
2023-04-11T14:12:45.810Z,6.22
2023-04-11T14:13:45.682Z,6.39
2023-04-11T14:14:45.689Z,6.06
2023-04-11T14:15:47.696Z,6.06
2023-04-11T14:16:45.752Z,5.94
2023-04-11T14:17:45.724Z,5.78
2023-04-11T14:18:45.700Z,5.78
2023-04-11T14:19:45.690Z,5.56
2023-04-11T14:20:45.699Z,5.56
2023-04-11T14:21:45.697Z,5.22
2023-04-11T14:22:45.706Z,5.56
2023-04-11T14:23:45.707Z,5.11
2023-04-11T14:24:45.716Z,5.11
2023-04-11T14:25:45.701Z,4.94
2023-04-11T14:26:45.716Z,5.39
2023-04-11T14:27:45.702Z,5.39
2023-04-11T14:28:45.734Z,5.39
2023-04-11T14:30:45.801Z,5.67
2023-04-11T14:32:45.763Z,5.78
2023-04-11T14:33:45.718Z,5.78
2023-04-11T14:35:45.703Z,5.56
2023-04-11T14:36:45.716Z,5.56
2023-04-11T14:38:45.697Z,5.67
2023-04-11T14:40:45.689Z,5.39
2023-04-11T14:41:45.701Z,5.78
2023-04-11T14:43:45.712Z,5.56
2023-04-11T14:44:45.785Z,5.78
2023-04-11T14:46:45.696Z,5.94
2023-04-11T14:47:45.737Z,5.67
2023-04-11T14:49:45.717Z,5.94
2023-04-11T14:51:45.705Z,6.06
2023-04-11T14:52:45.714Z,6.22
2023-04-11T14:54:45.685Z,6.22
2023-04-11T14:55:45.703Z,6.22
2023-04-11T14:56:45.711Z,6.22
2023-04-11T14:58:45.704Z,6.22
2023-04-11T15:00:45.727Z,6.22
2023-04-11T15:02:45.856Z,6.22
2023-04-11T15:03:45.785Z,6.06
2023-04-11T15:04:45.750Z,6.22
2023-04-11T15:05:45.699Z,6.39
2023-04-11T15:06:45.702Z,6.39
2023-04-11T15:07:45.699Z,6.06
2023-04-11T15:08:45.702Z,5.94
2023-04-11T15:09:45.691Z,6.22
2023-04-11T15:10:45.698Z,6.22
2023-04-11T15:11:45.709Z,6.06
2023-04-11T15:12:45.712Z,6.22
2023-04-11T15:13:45.693Z,6.22
2023-04-11T15:14:45.706Z,6.06
2023-04-11T15:15:45.767Z,6.39
2023-04-11T15:16:45.745Z,6.22
2023-04-11T15:18:45.705Z,5.78
2023-04-11T15:19:45.714Z,6.22
2023-04-11T15:20:45.700Z,5.67
2023-04-11T15:21:45.712Z,5.67
2023-04-11T15:23:45.719Z,6.06
2023-04-11T15:25:45.735Z,6.22
2023-04-11T15:26:45.711Z,6.06
2023-04-11T15:27:45.712Z,6.06
2023-04-11T15:28:46.335Z,5.67
2023-04-11T15:30:45.713Z,5.94
2023-04-11T15:32:45.759Z,5.94
2023-04-11T15:34:45.725Z,6.22
2023-04-11T15:35:45.727Z,6.39
2023-04-11T15:36:45.726Z,6.22
2023-04-11T15:37:45.708Z,6.06
2023-04-11T15:38:45.719Z,6.22
2023-04-11T15:39:45.710Z,6.5
2023-04-11T15:40:45.723Z,6.22
2023-04-11T15:41:45.708Z,6.5
2023-04-11T15:42:45.721Z,6.39
2023-04-11T15:43:45.706Z,6.22
2023-04-11T15:44:45.727Z,6.67
2023-04-11T15:45:45.711Z,6.94
2023-04-11T15:46:46.991Z,7.22
2023-04-11T15:47:45.754Z,7.5
2023-04-11T15:48:45.743Z,7.11
2023-04-11T15:49:45.709Z,6.94
2023-04-11T15:50:45.735Z,7.11
2023-04-11T15:51:45.717Z,6.78
2023-04-11T15:52:45.727Z,6.67
2023-04-11T15:53:45.704Z,7.11
2023-04-11T15:54:45.749Z,6.67
2023-04-11T15:55:45.754Z,6.67
2023-04-11T15:57:45.726Z,6.39
2023-04-11T15:59:45.723Z,6.5
2023-04-11T16:00:45.719Z,6.67
2023-04-11T16:02:45.867Z,6.22
2023-04-11T16:03:45.817Z,6.39
2023-04-11T16:04:48.079Z,6.5
2023-04-11T16:05:45.722Z,6.39
2023-04-11T16:06:45.727Z,6.67
2023-04-11T16:07:45.713Z,6.5
2023-04-11T16:08:45.713Z,6.5
2023-04-11T16:09:45.748Z,6.39
2023-04-11T16:10:45.723Z,6.22
2023-04-11T16:11:45.720Z,6.5
2023-04-11T16:12:45.741Z,6.22
2023-04-11T16:13:45.744Z,6.22
2023-04-11T16:15:45.758Z,6.06
2023-04-11T16:16:45.767Z,6.5
2023-04-11T16:18:45.727Z,6.5
2023-04-11T16:19:45.749Z,6.67
2023-04-11T16:20:45.751Z,6.5
2023-04-11T16:22:45.731Z,6.39
2023-04-11T16:23:45.743Z,6.22
2023-04-11T16:24:45.740Z,6.39
2023-04-11T16:25:46.744Z,6.39
2023-04-11T16:27:45.756Z,6.39
2023-04-11T16:28:45.892Z,6.39
2023-04-11T16:29:45.731Z,6.39
2023-04-11T16:30:45.732Z,6.39
2023-04-11T16:31:45.738Z,6.39
2023-04-11T16:32:45.747Z,6.22
2023-04-11T16:34:45.732Z,6.22
2023-04-11T16:35:45.723Z,6.22
2023-04-11T16:36:45.775Z,6.22
2023-04-11T16:38:45.724Z,6.22
2023-04-11T16:39:45.731Z,5.78
2023-04-11T16:40:45.716Z,6.39
2023-04-11T16:41:45.798Z,6.06
2023-04-11T16:43:45.736Z,5.94
2023-04-11T16:44:45.735Z,5.78
2023-04-11T16:45:45.738Z,6.06
2023-04-11T16:47:45.783Z,6.06
2023-04-11T16:48:45.736Z,6.22
2023-04-11T16:50:45.734Z,5.78
2023-04-11T16:51:45.738Z,5.39
2023-04-11T16:52:45.773Z,5.94
2023-04-11T16:54:45.724Z,5.94